createdAt,value
2024-04-14T00:04:17.591Z,89.20
2024-04-14T00:09:39.359Z,89.49
2024-04-14T00:15:00.983Z,89.35
2024-04-14T00:20:24.345Z,89.14
2024-04-14T00:25:46.989Z,89.59
2024-04-14T00:31:08.956Z,89.44
2024-04-14T00:36:31.084Z,89.01
2024-04-14T00:41:52.534Z,89.58
2024-04-14T00:47:14.438Z,89.57
2024-04-14T00:52:35.962Z,89.09
2024-04-14T00:57:59.035Z,89.42
2024-04-14T01:03:21.052Z,89.53
2024-04-14T01:08:42.447Z,89.64
2024-04-14T01:14:05.289Z,89.49
2024-04-14T01:19:27.024Z,89.95
2024-04-14T01:24:50.356Z,89.71
2024-04-14T01:30:12.080Z,90.01
2024-04-14T01:35:34.058Z,89.72
2024-04-14T01:40:55.671Z,89.97
2024-04-14T01:46:17.181Z,89.31
2024-04-14T01:51:38.782Z,89.52
2024-04-14T01:57:00.160Z,90.13
2024-04-14T02:02:21.533Z,90.59
2024-04-14T02:07:43.526Z,90.08
2024-04-14T02:13:04.909Z,89.80
2024-04-14T02:18:26.646Z,89.63
2024-04-14T02:23:48.269Z,90.01
2024-04-14T02:29:09.815Z,89.87
2024-04-14T02:34:31.658Z,90.07
2024-04-14T02:39:54.650Z,89.88
2024-04-14T02:45:16.875Z,89.79
2024-04-14T02:50:38.794Z,89.95
2024-04-14T02:56:00.283Z,89.53
2024-04-14T03:01:22.371Z,89.47
2024-04-14T03:06:45.570Z,89.68
2024-04-14T03:12:07.984Z,89.42
2024-04-14T03:17:29.486Z,89.56
2024-04-14T03:22:51.011Z,89.71
2024-04-14T03:28:12.414Z,90.16
2024-04-14T03:33:34.090Z,89.90
2024-04-14T03:38:55.909Z,90.21
2024-04-14T03:44:17.201Z,90.26
2024-04-14T03:49:39.650Z,90.12
2024-04-14T03:55:01.425Z,90.29
2024-04-14T04:00:23.272Z,90.14
2024-04-14T04:05:55.477Z,90.17
2024-04-14T04:11:16.843Z,89.98
2024-04-14T04:16:40.902Z,90.01
2024-04-14T04:22:03.832Z,89.85
2024-04-14T04:27:25.355Z,89.60
2024-04-14T04:32:46.953Z,89.89
2024-04-14T04:38:08.534Z,89.84
2024-04-14T04:43:30.305Z,89.58
2024-04-14T04:48:53.448Z,89.74
2024-04-14T04:54:15.283Z,89.83
2024-04-14T04:59:36.996Z,89.96
2024-04-14T05:04:58.244Z,89.84
2024-04-14T05:10:19.928Z,89.63
2024-04-14T05:15:43.045Z,89.73
2024-04-14T05:21:04.871Z,89.66
2024-04-14T05:26:26.833Z,89.67
2024-04-14T05:31:48.287Z,89.54
2024-04-14T05:37:11.794Z,89.81
2024-04-14T05:42:33.604Z,89.51
2024-04-14T05:47:58.015Z,89.61
2024-04-14T05:53:20.189Z,89.30
2024-04-14T05:58:43.300Z,89.19
2024-04-14T06:04:05.063Z,89.08
2024-04-14T06:09:26.870Z,89.11
2024-04-14T06:14:48.354Z,89.31
2024-04-14T06:20:10.140Z,88.70
2024-04-14T06:25:31.826Z,88.37
2024-04-14T06:30:53.420Z,88.35
2024-04-14T06:36:14.921Z,88.23
2024-04-14T06:41:36.480Z,88.21
2024-04-14T06:46:57.847Z,88.33
2024-04-14T06:52:19.371Z,87.67
2024-04-14T06:57:40.607Z,87.88
2024-04-14T07:03:02.042Z,87.32
2024-04-14T07:08:23.637Z,86.50
2024-04-14T07:13:44.835Z,86.28
2024-04-14T07:19:06.368Z,84.80
2024-04-14T07:24:27.444Z,84.52
2024-04-14T07:29:49.019Z,83.73
2024-04-14T07:35:10.315Z,83.08
2024-04-14T07:40:32.047Z,82.61
2024-04-14T07:45:53.908Z,82.53
2024-04-14T07:51:15.168Z,81.71
2024-04-14T07:56:36.469Z,81.34
2024-04-14T08:01:57.472Z,80.73
2024-04-14T08:07:18.833Z,79.86
2024-04-14T08:12:40.394Z,79.66
2024-04-14T08:18:03.079Z,79.15
2024-04-14T08:23:24.421Z,79.05
2024-04-14T08:28:45.589Z,79.35
2024-04-14T08:34:09.128Z,79.90
2024-04-14T08:39:30.808Z,80.07
2024-04-14T08:44:52.735Z,80.69
2024-04-14T08:50:14.300Z,80.25
2024-04-14T08:55:35.767Z,80.29
2024-04-14T09:01:05.337Z,79.53
2024-04-14T09:06:30.521Z,78.85
2024-04-14T09:11:54.868Z,78.36
2024-04-14T09:17:16.857Z,77.79
2024-04-14T09:22:38.594Z,77.46
2024-04-14T09:28:12.116Z,77.00
2024-04-14T09:33:33.719Z,76.58
2024-04-14T09:38:55.922Z,76.41
2024-04-14T09:44:20.884Z,75.83
2024-04-14T09:49:45.188Z,75.49
2024-04-14T09:55:07.824Z,74.85
2024-04-14T10:00:29.656Z,74.23
2024-04-14T10:05:51.507Z,73.51
2024-04-14T10:11:13.037Z,72.90
2024-04-14T10:16:34.443Z,72.29
2024-04-14T10:22:02.996Z,71.14
2024-04-14T10:27:24.873Z,70.87
2024-04-14T10:32:48.562Z,70.44
2024-04-14T10:38:21.553Z,69.81
2024-04-14T10:43:44.981Z,69.32
2024-04-14T10:49:06.563Z,68.90
2024-04-14T10:54:30.812Z,68.59
2024-04-14T10:59:52.164Z,68.20
2024-04-14T11:05:13.707Z,67.90
2024-04-14T11:10:35.120Z,67.76
2024-04-14T11:16:00.460Z,67.15
2024-04-14T11:21:25.359Z,66.57
2024-04-14T11:26:47.278Z,65.35
2024-04-14T11:32:28.822Z,65.07
2024-04-14T11:37:52.496Z,64.56
2024-04-14T11:43:13.735Z,64.19
2024-04-14T11:48:35.034Z,64.47
2024-04-14T11:53:56.701Z,63.99
2024-04-14T11:59:18.215Z,63.93
2024-04-14T12:04:39.513Z,64.04
2024-04-14T12:10:00.998Z,63.92
2024-04-14T12:15:22.303Z,64.22
2024-04-14T12:20:43.606Z,63.93
2024-04-14T12:26:05.403Z,64.04
2024-04-14T12:31:27.013Z,64.03
2024-04-14T12:36:49.338Z,63.59
2024-04-14T12:42:11.821Z,63.85
2024-04-14T12:47:34.586Z,63.47
2024-04-14T12:52:56.207Z,63.38
2024-04-14T12:58:17.497Z,63.38
2024-04-14T13:03:38.800Z,63.29
2024-04-14T13:09:01.210Z,62.90
2024-04-14T13:14:22.446Z,62.36
2024-04-14T13:19:43.650Z,62.58
2024-04-14T13:25:08.287Z,62.20
2024-04-14T13:30:30.079Z,61.92
2024-04-14T13:35:51.668Z,61.45
2024-04-14T13:41:13.094Z,60.70
2024-04-14T13:46:34.935Z,60.63
2024-04-14T13:51:56.103Z,60.32
2024-04-14T13:57:18.787Z,59.71
2024-04-14T14:02:40.395Z,58.67
2024-04-14T14:08:03.070Z,58.30
2024-04-14T14:13:26.905Z,57.85
2024-04-14T14:18:49.870Z,56.78
2024-04-14T14:24:11.577Z,56.38
2024-04-14T14:29:33.124Z,55.85
2024-04-14T14:35:13.325Z,54.91
2024-04-14T14:40:34.840Z,53.95
2024-04-14T14:45:55.812Z,52.92
2024-04-14T14:51:17.241Z,53.00
2024-04-14T14:56:38.845Z,52.44
2024-04-14T15:02:00.517Z,52.34
2024-04-14T15:07:22.136Z,51.35
2024-04-14T15:12:44.592Z,51.16
2024-04-14T15:18:08.901Z,50.75
2024-04-14T15:23:34.634Z,51.00
2024-04-14T15:28:56.449Z,50.68
2024-04-14T15:34:17.659Z,50.48
2024-04-14T15:39:40.452Z,50.12
2024-04-14T15:45:01.483Z,49.98
2024-04-14T15:50:23.163Z,49.44
2024-04-14T15:55:44.710Z,49.51
2024-04-14T16:01:05.845Z,49.48
2024-04-14T16:06:28.801Z,49.74
2024-04-14T16:11:50.407Z,49.99
2024-04-14T16:17:11.826Z,50.30
2024-04-14T16:22:32.967Z,51.37
2024-04-14T16:27:54.413Z,51.64
2024-04-14T16:33:16.628Z,51.54
2024-04-14T16:38:38.553Z,52.03
2024-04-14T16:44:00.782Z,52.25
2024-04-14T16:49:23.091Z,52.96
2024-04-14T16:54:45.232Z,53.51
2024-04-14T17:00:09.762Z,54.10
2024-04-14T17:05:32.692Z,54.94
2024-04-14T17:10:55.015Z,56.10
2024-04-14T17:16:17.180Z,56.15
2024-04-14T17:21:39.138Z,56.79
2024-04-14T17:27:01.542Z,57.44
2024-04-14T17:32:23.972Z,58.37
2024-04-14T17:37:46.286Z,58.96
2024-04-14T17:43:09.069Z,59.39
2024-04-14T17:48:32.019Z,59.49
2024-04-14T17:53:54.522Z,59.72
2024-04-14T17:59:17.651Z,60.91
2024-04-14T18:04:41.371Z,61.05
2024-04-14T18:10:03.269Z,62.37
2024-04-14T18:15:25.415Z,62.42
2024-04-14T18:20:49.102Z,62.85
2024-04-14T18:26:10.652Z,64.03
2024-04-14T18:31:32.418Z,64.43
2024-04-14T18:36:55.433Z,64.94
2024-04-14T18:42:17.391Z,64.94
2024-04-14T18:47:39.172Z,65.37
2024-04-14T18:53:00.893Z,65.01
2024-04-14T18:58:22.658Z,65.84
2024-04-14T19:03:44.853Z,65.72
2024-04-14T19:09:06.567Z,65.58
2024-04-14T19:14:28.443Z,65.75
2024-04-14T19:19:51.097Z,65.45
2024-04-14T19:25:13.767Z,65.65
2024-04-14T19:30:35.602Z,66.04
2024-04-14T19:35:58.516Z,66.55
2024-04-14T19:41:21.178Z,66.25
2024-04-14T19:46:43.094Z,65.96
2024-04-14T19:52:05.089Z,66.22
2024-04-14T19:57:26.931Z,66.05
2024-04-14T20:02:51.450Z,66.40
2024-04-14T20:15:52.562Z,65.81
2024-04-14T20:57:14.922Z,67.05
2024-04-14T21:02:42.776Z,67.34
2024-04-14T21:08:34.050Z,67.41
2024-04-14T21:14:57.628Z,68.06
2024-04-14T21:20:33.741Z,67.86
2024-04-14T21:32:23.129Z,68.22
2024-04-14T21:37:47.402Z,68.15
2024-04-14T21:43:13.870Z,67.97
2024-04-14T21:49:03.168Z,68.66
2024-04-14T22:01:20.291Z,68.54
2024-04-14T22:14:30.843Z,68.70
2024-04-14T22:27:09.734Z,69.41
2024-04-14T22:33:12.686Z,69.42
2024-04-14T22:45:09.860Z,69.39
2024-04-14T22:51:26.873Z,70.13
2024-04-14T22:56:55.557Z,70.12
2024-04-14T23:02:30.806Z,70.79
2024-04-14T23:07:59.571Z,70.50
2024-04-14T23:13:24.064Z,70.48
2024-04-14T23:18:45.816Z,70.39
2024-04-14T23:24:32.983Z,70.49
2024-04-14T23:30:00.466Z,70.36
2024-04-14T23:35:27.599Z,70.62
2024-04-14T23:40:53.730Z,71.04
2024-04-14T23:46:23.264Z,70.48
2024-04-14T23:51:51.297Z,71.02
2024-04-14T23:57:13.412Z,70.76
